createdAt,value
2024-04-25T00:02:13.025Z,5.14
2024-04-25T00:04:39.733Z,5.07
2024-04-25T00:07:06.350Z,5.08
2024-04-25T00:09:32.893Z,5.06
2024-04-25T00:11:59.848Z,5.05
2024-04-25T00:14:26.352Z,5.12
2024-04-25T00:16:52.939Z,4.97
2024-04-25T00:19:19.534Z,5.06
2024-04-25T00:21:46.059Z,5.06
2024-04-25T00:24:12.596Z,4.96
2024-04-25T00:26:39.140Z,5.03
2024-04-25T00:29:05.654Z,4.92
2024-04-25T00:31:33.868Z,4.92
2024-04-25T00:34:00.550Z,4.95
2024-04-25T00:36:27.102Z,4.93
2024-04-25T00:38:53.722Z,4.92
2024-04-25T00:41:20.326Z,4.91
2024-04-25T00:43:51.596Z,4.98
2024-04-25T00:46:19.157Z,4.90
2024-04-25T00:48:46.906Z,4.86
2024-04-25T00:51:14.020Z,4.95
2024-04-25T00:53:40.714Z,4.94
2024-04-25T00:56:07.967Z,4.97
2024-04-25T00:58:36.820Z,4.94
2024-04-25T01:01:04.774Z,4.94
2024-04-25T01:03:33.337Z,4.92
2024-04-25T01:06:03.734Z,4.83
2024-04-25T01:08:30.324Z,4.88
2024-04-25T01:10:56.913Z,4.93
2024-04-25T01:13:23.693Z,4.88
2024-04-25T01:15:50.592Z,4.90
2024-04-25T01:18:17.202Z,4.88
2024-04-25T01:20:43.709Z,4.83
2024-04-25T01:23:12.922Z,4.85
2024-04-25T01:25:39.658Z,4.73
2024-04-25T01:28:06.983Z,4.78
2024-04-25T01:30:34.929Z,4.67
2024-04-25T01:33:03.796Z,4.73
2024-04-25T01:35:32.025Z,4.73
2024-04-25T01:38:00.537Z,4.63
2024-04-25T01:40:27.511Z,4.63
2024-04-25T01:42:54.585Z,4.71
2024-04-25T01:45:21.081Z,4.78
2024-04-25T01:47:47.666Z,4.73
2024-04-25T01:50:14.281Z,4.78
2024-04-25T01:52:40.802Z,4.69
2024-04-25T01:55:07.467Z,4.64
2024-04-25T01:57:33.950Z,4.71
2024-04-25T02:00:00.998Z,4.80
2024-04-25T02:02:27.672Z,4.69
2024-04-25T02:04:54.288Z,4.70
2024-04-25T02:07:20.828Z,4.81
2024-04-25T02:09:47.377Z,4.83
2024-04-25T02:12:14.024Z,4.77
2024-04-25T02:14:40.594Z,4.73
2024-04-25T02:17:07.256Z,4.78
2024-04-25T02:19:33.849Z,4.78
2024-04-25T02:22:19.262Z,4.75
2024-04-25T02:25:04.446Z,4.75
2024-04-25T02:27:31.397Z,4.65
2024-04-25T02:29:57.899Z,4.70
2024-04-25T02:32:24.874Z,4.73
2024-04-25T02:34:51.476Z,4.69
2024-04-25T02:37:18.046Z,4.73
2024-04-25T02:39:44.568Z,4.71
2024-04-25T02:42:11.075Z,4.66
2024-04-25T02:44:37.671Z,4.66
2024-04-25T02:47:04.340Z,4.69
2024-04-25T02:49:30.925Z,4.73
2024-04-25T02:51:57.446Z,4.67
2024-04-25T02:54:23.950Z,4.66
2024-04-25T02:56:50.448Z,4.56
2024-04-25T02:59:17.039Z,4.64
2024-04-25T03:01:43.565Z,4.64
2024-04-25T03:04:12.756Z,4.66
2024-04-25T03:06:39.538Z,4.68
2024-04-25T03:09:08.936Z,4.75
2024-04-25T03:11:35.522Z,4.64
2024-04-25T03:14:02.116Z,4.74
2024-04-25T03:16:28.604Z,4.76
2024-04-25T03:18:55.223Z,4.78
2024-04-25T03:21:21.798Z,4.74
2024-04-25T03:23:48.350Z,4.73
2024-04-25T03:26:14.849Z,4.72
2024-04-25T03:28:41.648Z,4.70
2024-04-25T03:31:08.212Z,4.62
2024-04-25T03:33:34.858Z,4.58
2024-04-25T03:36:01.434Z,4.55
2024-04-25T03:38:28.011Z,4.46
2024-04-25T03:40:54.763Z,4.43
2024-04-25T03:43:21.295Z,4.50
2024-04-25T03:45:47.774Z,4.46
2024-04-25T03:48:14.384Z,4.44
2024-04-25T03:50:41.194Z,4.33
2024-04-25T03:53:09.307Z,4.38
2024-04-25T03:55:37.489Z,4.41
2024-04-25T03:58:04.141Z,4.36
2024-04-25T04:00:30.687Z,4.37
2024-04-25T04:02:57.196Z,4.33
2024-04-25T04:05:24.461Z,4.40
2024-04-25T04:07:51.510Z,4.29
2024-04-25T04:10:18.116Z,4.32
2024-04-25T04:12:44.686Z,4.21
2024-04-25T04:15:11.195Z,4.22
2024-04-25T04:17:37.911Z,4.31
2024-04-25T04:20:04.965Z,4.26
2024-04-25T04:22:31.480Z,4.36
2024-04-25T04:24:57.950Z,4.34
2024-04-25T04:27:24.555Z,4.31
2024-04-25T04:29:51.067Z,4.29
2024-04-25T04:32:18.129Z,4.22
2024-04-25T04:34:45.725Z,4.24
2024-04-25T04:37:13.130Z,4.27
2024-04-25T04:39:39.703Z,4.28
2024-04-25T04:42:06.415Z,4.37
2024-04-25T04:44:33.000Z,4.39
2024-04-25T04:46:59.553Z,4.46
2024-04-25T04:49:26.090Z,4.45
2024-04-25T04:51:52.624Z,4.38
2024-04-25T04:54:19.159Z,4.48
2024-04-25T04:56:45.996Z,4.39
2024-04-25T04:59:13.411Z,4.36
2024-04-25T05:01:39.947Z,4.23
2024-04-25T05:04:06.477Z,4.22
2024-04-25T05:06:33.083Z,4.24
2024-04-25T05:08:59.685Z,4.29
2024-04-25T05:11:27.018Z,4.40
2024-04-25T05:13:53.602Z,4.20
2024-04-25T05:16:20.299Z,4.19
2024-04-25T05:18:46.894Z,4.30
2024-04-25T05:21:13.475Z,4.33
2024-04-25T05:23:40.000Z,4.30
2024-04-25T05:26:08.544Z,4.40
2024-04-25T05:28:35.047Z,4.93
2024-04-25T05:31:01.581Z,4.64
2024-04-25T05:33:28.123Z,4.80
2024-04-25T05:35:55.964Z,4.82
2024-04-25T05:38:22.505Z,4.93
2024-04-25T05:40:49.055Z,5.11
2024-04-25T05:43:15.656Z,5.07
2024-04-25T05:45:42.170Z,5.09
2024-04-25T05:48:08.859Z,5.06
2024-04-25T05:50:35.505Z,5.39
2024-04-25T05:53:05.059Z,5.33
2024-04-25T05:55:31.888Z,5.63
2024-04-25T05:57:58.433Z,5.58
2024-04-25T06:00:24.970Z,5.55
2024-04-25T06:02:51.683Z,5.41
2024-04-25T06:05:18.295Z,5.42
2024-04-25T06:07:44.899Z,5.45
2024-04-25T06:10:11.474Z,5.19
2024-04-25T06:12:38.238Z,5.19
2024-04-25T06:15:05.118Z,5.47
2024-04-25T06:17:31.739Z,5.52
2024-04-25T06:19:59.066Z,5.70
2024-04-25T06:22:25.989Z,5.73
2024-04-25T06:24:52.527Z,6.03
2024-04-25T06:27:19.080Z,6.02
2024-04-25T06:29:45.643Z,6.03
2024-04-25T06:32:12.214Z,6.24
2024-04-25T06:34:38.768Z,6.62
2024-04-25T06:37:09.007Z,6.42
2024-04-25T06:39:35.535Z,6.24
2024-04-25T06:42:02.461Z,6.20
2024-04-25T06:44:34.790Z,5.97
2024-04-25T06:47:07.524Z,5.67
2024-04-25T06:49:34.375Z,5.63
2024-04-25T06:52:03.011Z,5.95
2024-04-25T06:54:30.455Z,6.38
2024-04-25T06:56:57.234Z,6.39
2024-04-25T06:59:23.819Z,6.41
2024-04-25T07:01:51.162Z,6.32
2024-04-25T07:04:18.121Z,6.18
2024-04-25T07:06:44.608Z,6.36
2024-04-25T07:09:11.246Z,6.33
2024-04-25T07:11:38.247Z,6.52
2024-04-25T07:14:05.113Z,6.54
2024-04-25T07:16:31.681Z,6.92
2024-04-25T07:18:58.265Z,7.22
2024-04-25T07:21:28.202Z,7.08
2024-04-25T07:23:55.545Z,7.19
2024-04-25T07:26:22.461Z,7.10
2024-04-25T07:28:49.259Z,6.91
2024-04-25T07:31:15.843Z,6.91
2024-04-25T07:33:42.659Z,7.18
2024-04-25T07:36:09.328Z,7.22
2024-04-25T07:38:35.876Z,7.35
2024-04-25T07:41:02.460Z,6.87
2024-04-25T07:43:28.960Z,7.30
2024-04-25T07:45:55.475Z,7.11
2024-04-25T07:48:22.161Z,7.11
2024-04-25T07:50:48.796Z,6.78
2024-04-25T07:53:15.633Z,7.04
2024-04-25T07:55:42.183Z,7.03
2024-04-25T07:58:08.671Z,7.19
2024-04-25T08:00:35.274Z,7.25
2024-04-25T08:03:01.964Z,7.07
2024-04-25T08:05:28.706Z,7.16
2024-04-25T08:07:55.373Z,7.42
2024-04-25T08:10:23.588Z,7.62
2024-04-25T08:12:50.119Z,7.51
2024-04-25T08:15:16.640Z,7.45
2024-04-25T08:17:43.215Z,7.46
2024-04-25T08:20:10.099Z,7.42
2024-04-25T08:22:36.878Z,7.21
2024-04-25T08:25:03.579Z,7.15
2024-04-25T08:27:30.209Z,7.12
2024-04-25T08:29:56.842Z,7.18
2024-04-25T08:32:25.910Z,7.06
2024-04-25T08:34:52.970Z,7.31
2024-04-25T08:37:19.583Z,7.28
2024-04-25T08:39:46.085Z,7.42
2024-04-25T08:42:14.658Z,7.82
2024-04-25T08:44:42.745Z,8.33
2024-04-25T08:47:09.805Z,9.55
2024-04-25T08:49:38.242Z,9.87
2024-04-25T08:52:06.367Z,9.65
2024-04-25T08:54:33.465Z,9.06
2024-04-25T08:57:00.105Z,9.04
2024-04-25T08:59:26.773Z,8.20
2024-04-25T09:01:54.868Z,7.95
2024-04-25T09:04:27.721Z,7.77
2024-04-25T09:06:54.411Z,7.64
2024-04-25T09:09:25.330Z,7.56
2024-04-25T09:11:55.596Z,7.75
2024-04-25T09:14:22.501Z,7.84
2024-04-25T09:16:49.248Z,8.10
2024-04-25T09:19:15.848Z,8.19
2024-04-25T09:21:43.081Z,8.82
2024-04-25T09:24:10.002Z,9.11
2024-04-25T09:26:36.583Z,9.06
2024-04-25T09:29:03.538Z,9.29
2024-04-25T09:31:32.668Z,9.37
2024-04-25T09:33:59.350Z,9.87
2024-04-25T09:36:25.928Z,9.94
2024-04-25T09:38:53.314Z,10.45
2024-04-25T09:41:21.270Z,10.31
2024-04-25T09:43:48.427Z,9.83
2024-04-25T09:46:23.955Z,9.44
2024-04-25T09:48:54.791Z,8.99
2024-04-25T09:51:56.785Z,8.59
2024-04-25T09:54:29.493Z,7.73
2024-04-25T09:57:06.956Z,7.07
2024-04-25T09:59:42.067Z,6.97
2024-04-25T10:02:16.774Z,6.92
2024-04-25T10:04:44.608Z,7.50
2024-04-25T10:07:13.221Z,7.64
2024-04-25T10:09:39.962Z,8.06
2024-04-25T10:12:06.894Z,8.35
2024-04-25T10:14:36.909Z,8.81
2024-04-25T10:17:05.852Z,9.00
2024-04-25T10:19:44.213Z,9.76
2024-04-25T10:22:24.991Z,9.63
2024-04-25T10:24:52.689Z,9.98
2024-04-25T10:27:20.224Z,9.95
2024-04-25T10:29:53.450Z,9.67
2024-04-25T10:32:20.693Z,9.30
2024-04-25T10:34:50.293Z,9.62
2024-04-25T10:37:16.820Z,9.87
2024-04-25T10:39:44.087Z,9.57
2024-04-25T10:42:17.943Z,9.64
2024-04-25T10:44:45.402Z,10.16
2024-04-25T10:47:12.206Z,9.81
2024-04-25T10:49:38.992Z,10.07
2024-04-25T10:52:09.125Z,9.96
2024-04-25T10:54:36.013Z,10.15
2024-04-25T10:57:02.463Z,10.33
2024-04-25T10:59:32.427Z,10.58
2024-04-25T11:02:00.605Z,10.76
2024-04-25T11:04:36.961Z,10.71
2024-04-25T11:07:07.313Z,10.66
2024-04-25T11:09:35.528Z,10.15
2024-04-25T11:12:02.249Z,9.89
2024-04-25T11:14:28.861Z,8.88
2024-04-25T11:16:55.684Z,8.11
2024-04-25T11:19:26.627Z,7.98
2024-04-25T11:21:54.138Z,7.70
2024-04-25T11:24:23.085Z,7.51
2024-04-25T11:26:51.177Z,7.50
2024-04-25T11:29:18.206Z,7.44
2024-04-25T11:31:46.492Z,7.41
2024-04-25T11:34:24.027Z,7.64
2024-04-25T11:37:02.613Z,7.85
2024-04-25T11:39:31.363Z,7.76
2024-04-25T11:41:59.776Z,7.65
2024-04-25T11:44:28.491Z,7.85
2024-04-25T11:46:55.152Z,7.77
2024-04-25T11:49:21.756Z,7.83
2024-04-25T11:51:48.418Z,8.00
2024-04-25T11:54:14.982Z,7.97
2024-04-25T11:56:41.534Z,8.09
2024-04-25T11:59:08.085Z,8.16
2024-04-25T12:01:34.683Z,8.30
2024-04-25T12:04:01.229Z,8.23
2024-04-25T12:06:29.751Z,8.22
2024-04-25T12:08:56.381Z,8.10
2024-04-25T12:11:23.503Z,8.37
2024-04-25T12:13:50.202Z,8.41
2024-04-25T12:16:16.808Z,8.32
2024-04-25T12:18:43.481Z,8.53
2024-04-25T12:21:10.049Z,8.68
2024-04-25T12:23:36.720Z,8.99
2024-04-25T12:26:03.633Z,9.59
2024-04-25T12:28:34.928Z,10.05
2024-04-25T12:31:04.093Z,10.39
2024-04-25T12:33:32.166Z,10.68
2024-04-25T12:35:58.820Z,10.03
2024-04-25T12:38:25.331Z,10.36
2024-04-25T12:40:51.908Z,10.12
2024-04-25T12:43:18.467Z,10.33
2024-04-25T12:45:48.378Z,11.08
2024-04-25T12:48:15.380Z,10.33
2024-04-25T12:50:42.044Z,10.52
2024-04-25T12:53:08.529Z,10.78
2024-04-25T12:55:35.299Z,10.86
2024-04-25T12:58:01.765Z,10.24
2024-04-25T13:00:28.307Z,9.96
2024-04-25T13:02:54.994Z,10.45
2024-04-25T13:05:21.863Z,10.28
2024-04-25T13:07:49.887Z,10.59
2024-04-25T13:10:16.614Z,10.78
2024-04-25T13:12:43.129Z,11.16
2024-04-25T13:15:09.670Z,11.06
2024-04-25T13:17:38.039Z,11.09
2024-04-25T13:20:06.284Z,11.23
2024-04-25T13:22:32.810Z,11.36
2024-04-25T13:24:59.346Z,11.10
2024-04-25T13:27:25.919Z,10.62
2024-04-25T13:29:52.538Z,10.69
2024-04-25T13:32:19.417Z,10.60
2024-04-25T13:34:45.925Z,10.95
2024-04-25T13:37:12.436Z,10.94
2024-04-25T13:39:40.542Z,10.86
2024-04-25T13:42:11.159Z,10.75
2024-04-25T13:44:37.861Z,11.05
2024-04-25T13:47:04.469Z,11.20
2024-04-25T13:49:31.054Z,11.10
2024-04-25T13:51:57.577Z,11.25
2024-04-25T13:54:24.226Z,10.77
2024-04-25T13:56:50.782Z,11.13
2024-04-25T13:59:21.880Z,11.28
2024-04-25T14:01:49.449Z,11.35
2024-04-25T14:04:16.000Z,11.14
2024-04-25T14:06:44.342Z,11.49
2024-04-25T14:09:11.145Z,11.31
2024-04-25T14:11:37.795Z,11.27
2024-04-25T14:14:05.965Z,10.85
2024-04-25T14:16:32.530Z,10.92
2024-04-25T14:18:59.104Z,11.16
2024-04-25T14:21:25.586Z,11.16
2024-04-25T14:23:52.183Z,11.05
2024-04-25T14:26:37.494Z,11.15
2024-04-25T14:29:04.028Z,11.26
2024-04-25T14:31:30.563Z,11.09
2024-04-25T14:33:57.263Z,11.16
2024-04-25T14:36:24.313Z,10.89
2024-04-25T14:38:51.157Z,10.77
2024-04-25T14:41:19.425Z,10.59
2024-04-25T14:43:51.777Z,10.73
2024-04-25T14:46:27.182Z,10.98
2024-04-25T14:48:53.814Z,11.03
2024-04-25T14:51:20.444Z,11.28
2024-04-25T14:53:47.088Z,11.20
2024-04-25T14:56:13.778Z,11.94
2024-04-25T14:58:40.322Z,12.51
2024-04-25T15:01:06.926Z,12.40
2024-04-25T15:03:34.552Z,12.19
2024-04-25T15:06:01.225Z,11.93
2024-04-25T15:08:27.743Z,11.98
2024-04-25T15:10:54.310Z,11.54
2024-04-25T15:13:22.139Z,11.78
2024-04-25T15:15:49.683Z,11.68
2024-04-25T15:18:17.859Z,11.26
2024-04-25T15:20:44.477Z,11.02
2024-04-25T15:23:11.033Z,10.79
2024-04-25T15:25:37.540Z,10.80
2024-04-25T15:28:04.359Z,11.11
2024-04-25T15:30:32.203Z,11.59
2024-04-25T15:32:58.986Z,12.74
2024-04-25T15:35:25.690Z,12.55
2024-04-25T15:37:52.215Z,12.97
2024-04-25T15:40:18.696Z,12.85
2024-04-25T15:42:45.547Z,13.35
2024-04-25T15:45:12.210Z,12.40
2024-04-25T15:47:38.755Z,12.37
2024-04-25T15:50:05.649Z,12.63
2024-04-25T15:52:35.126Z,12.16
2024-04-25T15:55:02.660Z,11.98
2024-04-25T15:57:29.288Z,11.46
2024-04-25T15:59:55.916Z,11.78
2024-04-25T16:02:22.808Z,12.31
2024-04-25T16:04:51.789Z,12.16
2024-04-25T16:07:18.907Z,12.66
2024-04-25T16:09:48.318Z,12.51
2024-04-25T16:12:14.950Z,11.78
2024-04-25T16:14:41.537Z,11.86
2024-04-25T16:17:08.146Z,11.66
2024-04-25T16:19:36.535Z,11.33
2024-04-25T16:22:03.264Z,11.27
2024-04-25T16:24:29.803Z,11.85
2024-04-25T16:26:56.415Z,11.94
2024-04-25T16:29:25.721Z,11.47
2024-04-25T16:31:53.320Z,11.13
2024-04-25T16:34:20.020Z,11.11
2024-04-25T16:36:46.641Z,11.20
2024-04-25T16:39:13.138Z,10.99
2024-04-25T16:41:39.698Z,10.84
2024-04-25T16:44:06.235Z,10.88
2024-04-25T16:46:33.211Z,10.99
2024-04-25T16:48:59.739Z,10.70
2024-04-25T16:51:29.613Z,10.69
2024-04-25T16:53:56.305Z,11.34
2024-04-25T16:56:23.038Z,11.98
2024-04-25T16:58:50.352Z,11.88
2024-04-25T17:01:17.876Z,11.46
2024-04-25T17:03:45.236Z,11.20
2024-04-25T17:06:12.062Z,10.90
2024-04-25T17:08:38.696Z,10.72
2024-04-25T17:11:05.489Z,10.67
2024-04-25T17:13:32.010Z,10.76
2024-04-25T17:15:58.510Z,10.57
2024-04-25T17:18:25.388Z,10.42
2024-04-25T17:20:52.282Z,10.10
2024-04-25T17:23:21.728Z,10.09
2024-04-25T17:25:48.341Z,9.98
2024-04-25T17:28:14.891Z,9.94
2024-04-25T17:30:41.536Z,9.90
2024-04-25T17:33:08.164Z,9.86
2024-04-25T17:35:34.793Z,9.78
2024-04-25T17:38:01.472Z,9.74
2024-04-25T17:40:27.967Z,9.58
2024-04-25T17:42:54.458Z,9.48
2024-04-25T17:45:22.299Z,9.37
2024-04-25T17:47:48.964Z,9.41
2024-04-25T17:50:15.956Z,9.38
2024-04-25T17:52:42.784Z,9.37
2024-04-25T17:55:12.276Z,9.27
2024-04-25T17:57:43.720Z,9.02
2024-04-25T18:00:11.805Z,8.96
2024-04-25T18:02:40.174Z,8.75
2024-04-25T18:05:07.049Z,8.63
2024-04-25T18:07:36.942Z,8.56
2024-04-25T18:10:04.507Z,8.40
2024-04-25T18:12:31.077Z,8.36
2024-04-25T18:14:57.624Z,8.40
2024-04-25T18:17:26.431Z,8.30
2024-04-25T18:19:53.563Z,8.40
2024-04-25T18:22:24.721Z,8.46
2024-04-25T18:24:52.414Z,8.36
2024-04-25T18:27:20.230Z,8.12
2024-04-25T18:29:47.060Z,8.03
2024-04-25T18:32:14.123Z,7.99
2024-04-25T18:34:41.313Z,8.02
2024-04-25T18:37:09.757Z,7.93
2024-04-25T18:39:36.423Z,7.90
2024-04-25T18:42:05.601Z,7.87
2024-04-25T18:44:33.566Z,7.81
2024-04-25T18:47:00.201Z,7.72
2024-04-25T18:49:26.855Z,7.70
2024-04-25T18:51:53.448Z,7.57
2024-04-25T18:54:19.946Z,7.63
2024-04-25T18:56:46.593Z,7.57
2024-04-25T18:59:13.320Z,7.55
2024-04-25T19:01:39.804Z,7.45
2024-04-25T19:04:06.437Z,7.41
2024-04-25T19:06:32.967Z,7.36
2024-04-25T19:09:00.196Z,7.37
2024-04-25T19:11:27.893Z,7.36
2024-04-25T19:13:57.571Z,7.31
2024-04-25T19:16:25.108Z,7.36
2024-04-25T19:18:52.442Z,7.32
2024-04-25T19:21:18.984Z,7.38
2024-04-25T19:23:45.675Z,7.40
2024-04-25T19:26:12.898Z,7.37
2024-04-25T19:28:40.468Z,7.39
2024-04-25T19:31:07.105Z,7.29
2024-04-25T19:33:36.529Z,7.24
2024-04-25T19:36:03.959Z,7.22
2024-04-25T19:38:30.692Z,7.37
2024-04-25T19:40:59.586Z,7.32
2024-04-25T19:43:26.130Z,7.31
2024-04-25T19:45:52.639Z,7.24
2024-04-25T19:48:19.272Z,7.32
2024-04-25T19:50:45.928Z,7.20
2024-04-25T19:53:12.911Z,7.26
2024-04-25T19:55:39.520Z,7.25
2024-04-25T19:58:06.109Z,7.32
2024-04-25T20:00:32.683Z,7.34
2024-04-25T20:03:01.602Z,7.29
2024-04-25T20:05:28.227Z,7.34
2024-04-25T20:07:54.775Z,7.31
2024-04-25T20:10:21.487Z,7.34
2024-04-25T20:12:47.998Z,7.29
2024-04-25T20:15:14.544Z,7.24
2024-04-25T20:18:00.124Z,7.23
2024-04-25T20:20:45.129Z,7.30
2024-04-25T20:23:11.663Z,7.43
2024-04-25T20:25:38.160Z,7.40
2024-04-25T20:28:04.968Z,7.34
2024-04-25T20:30:31.560Z,7.37
2024-04-25T20:32:58.261Z,7.30
2024-04-25T20:35:24.950Z,7.30
2024-04-25T20:37:51.448Z,7.23
2024-04-25T20:40:18.004Z,7.26
2024-04-25T20:42:44.588Z,7.20
2024-04-25T20:45:11.093Z,7.16
2024-04-25T20:47:38.777Z,7.06
2024-04-25T20:50:05.745Z,7.10
2024-04-25T20:52:32.450Z,6.97
2024-04-25T20:54:59.106Z,7.00
2024-04-25T20:57:25.681Z,7.04
2024-04-25T20:59:52.283Z,7.11
2024-04-25T21:02:18.934Z,7.04
2024-04-25T21:04:45.719Z,7.05
2024-04-25T21:07:12.265Z,6.90
2024-04-25T21:09:39.207Z,6.79
2024-04-25T21:12:05.974Z,6.79
2024-04-25T21:14:33.156Z,6.81
2024-04-25T21:17:00.991Z,6.79
2024-04-25T21:19:27.541Z,6.79
2024-04-25T21:21:54.088Z,6.79
2024-04-25T21:24:20.606Z,6.83
2024-04-25T21:26:47.737Z,6.83
2024-04-25T21:29:14.377Z,6.95
2024-04-25T21:31:42.045Z,6.99
2024-04-25T21:34:08.666Z,6.92
2024-04-25T21:36:39.495Z,6.91
2024-04-25T21:39:06.680Z,7.04
2024-04-25T21:41:40.699Z,6.89
2024-04-25T21:44:08.089Z,6.96
2024-04-25T21:46:37.882Z,6.89
2024-04-25T21:49:06.778Z,6.79
2024-04-25T21:51:33.861Z,6.85
2024-04-25T21:54:00.735Z,6.96
2024-04-25T21:56:27.288Z,6.99
2024-04-25T21:58:53.886Z,6.86
2024-04-25T22:01:20.535Z,6.88
2024-04-25T22:03:48.575Z,6.79
2024-04-25T22:06:19.420Z,6.75
2024-04-25T22:08:46.428Z,6.79
2024-04-25T22:11:14.271Z,6.90
2024-04-25T22:13:42.022Z,6.90
2024-04-25T22:16:09.650Z,6.82
2024-04-25T22:18:37.405Z,6.77
2024-04-25T22:21:04.202Z,6.87
2024-04-25T22:23:30.700Z,6.82
2024-04-25T22:25:57.511Z,6.88
2024-04-25T22:28:24.132Z,6.90
2024-04-25T22:30:50.719Z,6.84
2024-04-25T22:33:17.509Z,6.82
2024-04-25T22:35:44.163Z,6.71
2024-04-25T22:38:10.765Z,6.61
2024-04-25T22:40:37.317Z,6.63
2024-04-25T22:43:04.026Z,6.63
2024-04-25T22:45:32.666Z,6.74
2024-04-25T22:48:02.806Z,6.71
2024-04-25T22:50:29.491Z,6.62
2024-04-25T22:52:56.067Z,6.64
2024-04-25T22:55:22.606Z,6.63
2024-04-25T22:57:49.083Z,6.67
2024-04-25T23:00:16.022Z,6.63
2024-04-25T23:02:44.037Z,6.56
2024-04-25T23:05:10.644Z,6.57
2024-04-25T23:07:37.121Z,6.55
2024-04-25T23:10:04.283Z,6.54
2024-04-25T23:12:30.895Z,6.49
2024-04-25T23:14:57.769Z,6.41
2024-04-25T23:17:24.508Z,6.41
2024-04-25T23:19:51.054Z,6.37
2024-04-25T23:22:17.581Z,6.32
2024-04-25T23:24:44.069Z,6.33
2024-04-25T23:27:10.574Z,6.33
2024-04-25T23:29:37.131Z,6.27
2024-04-25T23:32:03.766Z,6.34
2024-04-25T23:34:30.411Z,6.29
2024-04-25T23:36:56.972Z,6.29
2024-04-25T23:39:23.465Z,6.24
2024-04-25T23:41:49.948Z,6.28
2024-04-25T23:44:16.530Z,6.31
2024-04-25T23:46:43.100Z,6.27
2024-04-25T23:49:09.662Z,6.34
2024-04-25T23:51:36.901Z,6.34
2024-04-25T23:54:03.439Z,6.28
2024-04-25T23:56:30.020Z,6.28
2024-04-25T23:58:56.663Z,6.37
